sensor_id;sensor_type;location;lat;lon;timestamp;P1;durP1;ratioP1;P2;durP2;ratioP2
7375;SDS011;3728;42.266;24.944;2023-02-19T00:02:25;14.10;;;8.73;;
7375;SDS011;3728;42.266;24.944;2023-02-19T00:04:53;13.47;;;8.00;;
7375;SDS011;3728;42.266;24.944;2023-02-19T00:07:21;14.67;;;9.80;;
7375;SDS011;3728;42.266;24.944;2023-02-19T00:09:48;16.43;;;10.53;;
7375;SDS011;3728;42.266;24.944;2023-02-19T00:12:15;16.67;;;10.97;;
7375;SDS011;3728;42.266;24.944;2023-02-19T00:14:43;17.33;;;10.83;;
7375;SDS011;3728;42.266;24.944;2023-02-19T00:17:10;15.67;;;11.43;;
7375;SDS011;3728;42.266;24.944;2023-02-19T00:19:40;18.70;;;10.70;;
7375;SDS011;3728;42.266;24.944;2023-02-19T00:22:08;13.10;;;10.20;;
7375;SDS011;3728;42.266;24.944;2023-02-19T00:24:36;13.90;;;8.90;;
7375;SDS011;3728;42.266;24.944;2023-02-19T00:27:03;14.03;;;8.97;;
7375;SDS011;3728;42.266;24.944;2023-02-19T00:29:31;12.50;;;8.77;;
7375;SDS011;3728;42.266;24.944;2023-02-19T00:32:01;13.53;;;8.37;;
7375;SDS011;3728;42.266;24.944;2023-02-19T00:34:29;12.23;;;8.50;;
7375;SDS011;3728;42.266;24.944;2023-02-19T00:36:56;22.33;;;8.57;;
7375;SDS011;3728;42.266;24.944;2023-02-19T00:39:24;12.77;;;9.13;;
7375;SDS011;3728;42.266;24.944;2023-02-19T00:41:52;11.17;;;9.03;;
7375;SDS011;3728;42.266;24.944;2023-02-19T00:44:19;11.97;;;8.70;;
7375;SDS011;3728;42.266;24.944;2023-02-19T00:46:47;16.03;;;10.87;;
7375;SDS011;3728;42.266;24.944;2023-02-19T00:49:16;13.77;;;9.80;;
7375;SDS011;3728;42.266;24.944;2023-02-19T00:51:48;10.37;;;7.80;;
7375;SDS011;3728;42.266;24.944;2023-02-19T00:54:18;19.63;;;13.40;;
7375;SDS011;3728;42.266;24.944;2023-02-19T00:56:48;13.83;;;8.80;;
7375;SDS011;3728;42.266;24.944;2023-02-19T00:59:16;11.77;;;7.10;;
7375;SDS011;3728;42.266;24.944;2023-02-19T01:01:43;10.60;;;6.40;;
7375;SDS011;3728;42.266;24.944;2023-02-19T01:04:11;12.50;;;7.60;;
7375;SDS011;3728;42.266;24.944;2023-02-19T01:06:39;29.17;;;20.87;;
7375;SDS011;3728;42.266;24.944;2023-02-19T01:09:07;30.30;;;19.83;;
7375;SDS011;3728;42.266;24.944;2023-02-19T01:11:34;27.93;;;17.87;;
7375;SDS011;3728;42.266;24.944;2023-02-19T01:14:02;23.20;;;16.43;;
7375;SDS011;3728;42.266;24.944;2023-02-19T01:16:30;19.47;;;14.23;;
7375;SDS011;3728;42.266;24.944;2023-02-19T01:18:58;20.97;;;12.43;;
7375;SDS011;3728;42.266;24.944;2023-02-19T01:21:26;17.80;;;12.17;;
7375;SDS011;3728;42.266;24.944;2023-02-19T01:23:56;14.37;;;11.17;;
7375;SDS011;3728;42.266;24.944;2023-02-19T01:26:27;22.70;;;13.07;;
7375;SDS011;3728;42.266;24.944;2023-02-19T01:28:58;16.60;;;12.50;;
7375;SDS011;3728;42.266;24.944;2023-02-19T01:31:26;27.33;;;18.40;;
7375;SDS011;3728;42.266;24.944;2023-02-19T01:33:56;26.03;;;16.77;;
7375;SDS011;3728;42.266;24.944;2023-02-19T01:36:26;28.93;;;17.47;;
7375;SDS011;3728;42.266;24.944;2023-02-19T01:38:55;29.53;;;17.43;;
7375;SDS011;3728;42.266;24.944;2023-02-19T01:41:29;35.60;;;20.90;;
7375;SDS011;3728;42.266;24.944;2023-02-19T01:46:30;19.83;;;12.23;;
7375;SDS011;3728;42.266;24.944;2023-02-19T01:49:01;23.93;;;14.43;;
7375;SDS011;3728;42.266;24.944;2023-02-19T01:51:45;26.30;;;15.40;;
7375;SDS011;3728;42.266;24.944;2023-02-19T01:54:25;28.97;;;17.20;;
7375;SDS011;3728;42.266;24.944;2023-02-19T01:56:56;33.90;;;18.70;;
7375;SDS011;3728;42.266;24.944;2023-02-19T01:59:25;34.23;;;20.60;;
7375;SDS011;3728;42.266;24.944;2023-02-19T02:01:53;34.30;;;21.63;;
7375;SDS011;3728;42.266;24.944;2023-02-19T02:04:21;51.97;;;30.03;;
7375;SDS011;3728;42.266;24.944;2023-02-19T02:09:21;50.83;;;27.23;;
7375;SDS011;3728;42.266;24.944;2023-02-19T02:12:13;35.50;;;20.50;;
7375;SDS011;3728;42.266;24.944;2023-02-19T02:14:42;32.80;;;19.70;;
7375;SDS011;3728;42.266;24.944;2023-02-19T02:17:24;49.57;;;25.60;;
7375;SDS011;3728;42.266;24.944;2023-02-19T02:22:46;36.37;;;21.50;;
7375;SDS011;3728;42.266;24.944;2023-02-19T02:31:38;48.87;;;24.97;;
7375;SDS011;3728;42.266;24.944;2023-02-19T02:34:13;32.37;;;19.20;;
7375;SDS011;3728;42.266;24.944;2023-02-19T02:36:51;29.70;;;18.10;;
7375;SDS011;3728;42.266;24.944;2023-02-19T02:39:22;30.90;;;18.30;;
7375;SDS011;3728;42.266;24.944;2023-02-19T02:41:54;32.07;;;17.97;;
7375;SDS011;3728;42.266;24.944;2023-02-19T02:44:51;41.83;;;22.03;;
7375;SDS011;3728;42.266;24.944;2023-02-19T02:47:48;35.63;;;20.50;;
7375;SDS011;3728;42.266;24.944;2023-02-19T02:53:20;38.00;;;20.77;;
7375;SDS011;3728;42.266;24.944;2023-02-19T02:56:14;35.13;;;20.27;;
7375;SDS011;3728;42.266;24.944;2023-02-19T02:58:43;36.50;;;21.30;;
7375;SDS011;3728;42.266;24.944;2023-02-19T03:01:22;39.10;;;20.83;;
7375;SDS011;3728;42.266;24.944;2023-02-19T03:04:15;37.10;;;17.87;;
7375;SDS011;3728;42.266;24.944;2023-02-19T03:06:59;28.63;;;13.13;;
7375;SDS011;3728;42.266;24.944;2023-02-19T03:09:36;18.13;;;10.73;;
7375;SDS011;3728;42.266;24.944;2023-02-19T03:12:13;14.73;;;9.07;;
7375;SDS011;3728;42.266;24.944;2023-02-19T03:15:04;16.03;;;8.20;;
7375;SDS011;3728;42.266;24.944;2023-02-19T03:17:57;17.33;;;9.70;;
7375;SDS011;3728;42.266;24.944;2023-02-19T03:20:49;19.90;;;10.47;;
7375;SDS011;3728;42.266;24.944;2023-02-19T03:23:20;14.57;;;11.00;;
7375;SDS011;3728;42.266;24.944;2023-02-19T03:26:11;17.40;;;8.70;;
7375;SDS011;3728;42.266;24.944;2023-02-19T03:28:49;14.30;;;9.80;;
7375;SDS011;3728;42.266;24.944;2023-02-19T03:31:40;12.63;;;8.70;;
7375;SDS011;3728;42.266;24.944;2023-02-19T03:34:11;7.27;;;5.87;;
7375;SDS011;3728;42.266;24.944;2023-02-19T03:36:57;10.47;;;6.20;;
7375;SDS011;3728;42.266;24.944;2023-02-19T03:39:42;8.13;;;5.80;;
7375;SDS011;3728;42.266;24.944;2023-02-19T03:47:37;12.47;;;7.10;;
7375;SDS011;3728;42.266;24.944;2023-02-19T03:50:42;12.07;;;7.53;;
7375;SDS011;3728;42.266;24.944;2023-02-19T04:01:33;14.77;;;5.10;;
7375;SDS011;3728;42.266;24.944;2023-02-19T04:04:37;5.43;;;4.33;;
7375;SDS011;3728;42.266;24.944;2023-02-19T04:07:15;9.13;;;5.27;;
7375;SDS011;3728;42.266;24.944;2023-02-19T04:09:45;18.40;;;6.40;;
7375;SDS011;3728;42.266;24.944;2023-02-19T04:12:17;7.87;;;6.03;;
7375;SDS011;3728;42.266;24.944;2023-02-19T04:14:58;8.87;;;5.03;;
7375;SDS011;3728;42.266;24.944;2023-02-19T04:17:52;10.57;;;4.87;;
7375;SDS011;3728;42.266;24.944;2023-02-19T04:20:38;6.80;;;5.13;;
7375;SDS011;3728;42.266;24.944;2023-02-19T04:23:09;8.97;;;5.63;;
7375;SDS011;3728;42.266;24.944;2023-02-19T04:25:40;10.97;;;5.63;;
7375;SDS011;3728;42.266;24.944;2023-02-19T04:28:12;12.20;;;6.47;;
7375;SDS011;3728;42.266;24.944;2023-02-19T04:30:41;12.57;;;6.83;;
7375;SDS011;3728;42.266;24.944;2023-02-19T04:33:09;8.77;;;6.30;;
7375;SDS011;3728;42.266;24.944;2023-02-19T04:35:37;10.13;;;5.63;;
7375;SDS011;3728;42.266;24.944;2023-02-19T04:38:04;7.50;;;5.13;;
7375;SDS011;3728;42.266;24.944;2023-02-19T04:40:32;9.50;;;5.13;;
7375;SDS011;3728;42.266;24.944;2023-02-19T04:43:20;10.30;;;6.30;;
7375;SDS011;3728;42.266;24.944;2023-02-19T04:45:50;9.57;;;5.53;;
7375;SDS011;3728;42.266;24.944;2023-02-19T04:48:17;7.43;;;5.57;;
7375;SDS011;3728;42.266;24.944;2023-02-19T04:50:45;9.50;;;5.47;;
7375;SDS011;3728;42.266;24.944;2023-02-19T04:53:12;9.87;;;5.43;;
7375;SDS011;3728;42.266;24.944;2023-02-19T04:55:40;14.73;;;6.90;;
7375;SDS011;3728;42.266;24.944;2023-02-19T04:58:08;11.93;;;6.57;;
7375;SDS011;3728;42.266;24.944;2023-02-19T05:00:35;11.10;;;6.50;;
7375;SDS011;3728;42.266;24.944;2023-02-19T05:03:03;10.13;;;6.83;;
7375;SDS011;3728;42.266;24.944;2023-02-19T05:05:31;13.30;;;5.93;;
7375;SDS011;3728;42.266;24.944;2023-02-19T05:07:58;8.30;;;5.97;;
7375;SDS011;3728;42.266;24.944;2023-02-19T05:10:26;8.00;;;5.80;;
7375;SDS011;3728;42.266;24.944;2023-02-19T05:12:53;9.17;;;6.10;;
7375;SDS011;3728;42.266;24.944;2023-02-19T05:15:23;7.97;;;5.60;;
7375;SDS011;3728;42.266;24.944;2023-02-19T05:17:52;8.03;;;5.70;;
7375;SDS011;3728;42.266;24.944;2023-02-19T05:20:21;7.80;;;5.77;;
7375;SDS011;3728;42.266;24.944;2023-02-19T05:22:48;7.43;;;6.00;;
7375;SDS011;3728;42.266;24.944;2023-02-19T05:25:16;11.17;;;6.87;;
7375;SDS011;3728;42.266;24.944;2023-02-19T05:27:43;27.20;;;17.13;;
7375;SDS011;3728;42.266;24.944;2023-02-19T05:30:11;30.17;;;18.60;;
7375;SDS011;3728;42.266;24.944;2023-02-19T05:32:39;26.23;;;15.77;;
7375;SDS011;3728;42.266;24.944;2023-02-19T05:35:06;13.80;;;9.43;;
7375;SDS011;3728;42.266;24.944;2023-02-19T05:37:34;12.57;;;8.23;;
7375;SDS011;3728;42.266;24.944;2023-02-19T05:40:02;9.60;;;6.63;;
7375;SDS011;3728;42.266;24.944;2023-02-19T05:42:29;16.10;;;7.17;;
7375;SDS011;3728;42.266;24.944;2023-02-19T05:44:57;13.90;;;8.13;;
7375;SDS011;3728;42.266;24.944;2023-02-19T05:47:26;14.50;;;6.47;;
7375;SDS011;3728;42.266;24.944;2023-02-19T05:49:53;10.60;;;6.93;;
7375;SDS011;3728;42.266;24.944;2023-02-19T05:52:21;12.00;;;6.97;;
7375;SDS011;3728;42.266;24.944;2023-02-19T05:54:48;10.47;;;6.97;;
7375;SDS011;3728;42.266;24.944;2023-02-19T05:57:15;14.43;;;8.17;;
7375;SDS011;3728;42.266;24.944;2023-02-19T05:59:43;48.20;;;32.77;;
7375;SDS011;3728;42.266;24.944;2023-02-19T06:02:11;146.03;;;91.70;;
7375;SDS011;3728;42.266;24.944;2023-02-19T06:04:38;43.33;;;33.37;;
7375;SDS011;3728;42.266;24.944;2023-02-19T06:07:06;14.90;;;11.10;;
7375;SDS011;3728;42.266;24.944;2023-02-19T06:09:33;15.50;;;11.20;;
7375;SDS011;3728;42.266;24.944;2023-02-19T06:12:01;12.80;;;8.17;;
7375;SDS011;3728;42.266;24.944;2023-02-19T06:14:28;15.73;;;8.80;;
7375;SDS011;3728;42.266;24.944;2023-02-19T06:16:56;14.03;;;8.40;;
7375;SDS011;3728;42.266;24.944;2023-02-19T06:19:24;12.07;;;7.90;;
7375;SDS011;3728;42.266;24.944;2023-02-19T06:21:54;10.83;;;5.60;;
7375;SDS011;3728;42.266;24.944;2023-02-19T06:24:22;9.57;;;6.90;;
7375;SDS011;3728;42.266;24.944;2023-02-19T06:26:49;12.63;;;7.40;;
7375;SDS011;3728;42.266;24.944;2023-02-19T06:29:17;13.33;;;7.97;;
7375;SDS011;3728;42.266;24.944;2023-02-19T06:31:44;19.90;;;9.43;;
7375;SDS011;3728;42.266;24.944;2023-02-19T06:34:12;23.13;;;9.87;;
7375;SDS011;3728;42.266;24.944;2023-02-19T06:36:39;10.50;;;6.53;;
7375;SDS011;3728;42.266;24.944;2023-02-19T06:39:08;7.90;;;5.40;;
7375;SDS011;3728;42.266;24.944;2023-02-19T06:41:36;10.73;;;6.27;;
7375;SDS011;3728;42.266;24.944;2023-02-19T06:44:04;10.63;;;5.77;;
7375;SDS011;3728;42.266;24.944;2023-02-19T06:46:31;9.43;;;5.90;;
7375;SDS011;3728;42.266;24.944;2023-02-19T06:48:59;13.93;;;9.73;;
7375;SDS011;3728;42.266;24.944;2023-02-19T06:51:29;11.17;;;7.37;;
7375;SDS011;3728;42.266;24.944;2023-02-19T06:53:58;9.30;;;6.77;;
7375;SDS011;3728;42.266;24.944;2023-02-19T06:56:29;9.47;;;6.03;;
7375;SDS011;3728;42.266;24.944;2023-02-19T06:59:02;9.20;;;6.30;;
7375;SDS011;3728;42.266;24.944;2023-02-19T07:01:36;9.43;;;6.47;;
7375;SDS011;3728;42.266;24.944;2023-02-19T07:04:05;12.33;;;8.50;;
7375;SDS011;3728;42.266;24.944;2023-02-19T07:06:33;8.23;;;6.30;;
7375;SDS011;3728;42.266;24.944;2023-02-19T07:09:02;11.33;;;5.27;;
7375;SDS011;3728;42.266;24.944;2023-02-19T07:11:32;7.43;;;5.17;;
7375;SDS011;3728;42.266;24.944;2023-02-19T07:14:04;7.57;;;4.87;;
7375;SDS011;3728;42.266;24.944;2023-02-19T07:16:34;7.00;;;4.57;;
7375;SDS011;3728;42.266;24.944;2023-02-19T07:19:02;9.93;;;4.43;;
7375;SDS011;3728;42.266;24.944;2023-02-19T07:21:30;7.63;;;5.00;;
7375;SDS011;3728;42.266;24.944;2023-02-19T07:23:57;5.93;;;4.10;;
7375;SDS011;3728;42.266;24.944;2023-02-19T07:26:25;12.47;;;4.60;;
7375;SDS011;3728;42.266;24.944;2023-02-19T07:28:53;9.77;;;5.30;;
7375;SDS011;3728;42.266;24.944;2023-02-19T07:31:21;6.37;;;4.43;;
7375;SDS011;3728;42.266;24.944;2023-02-19T07:33:50;7.50;;;5.07;;
7375;SDS011;3728;42.266;24.944;2023-02-19T07:36:18;9.07;;;5.03;;
7375;SDS011;3728;42.266;24.944;2023-02-19T07:38:54;7.73;;;4.87;;
7375;SDS011;3728;42.266;24.944;2023-02-19T07:41:24;11.13;;;5.20;;
7375;SDS011;3728;42.266;24.944;2023-02-19T07:43:56;10.67;;;5.20;;
7375;SDS011;3728;42.266;24.944;2023-02-19T07:46:24;10.10;;;4.63;;
7375;SDS011;3728;42.266;24.944;2023-02-19T07:48:52;11.07;;;6.97;;
7375;SDS011;3728;42.266;24.944;2023-02-19T07:51:20;8.57;;;5.73;;
7375;SDS011;3728;42.266;24.944;2023-02-19T07:53:48;10.23;;;4.87;;
7375;SDS011;3728;42.266;24.944;2023-02-19T07:56:17;7.17;;;4.60;;
7375;SDS011;3728;42.266;24.944;2023-02-19T07:58:46;10.23;;;5.40;;
7375;SDS011;3728;42.266;24.944;2023-02-19T08:01:17;10.67;;;4.33;;
7375;SDS011;3728;42.266;24.944;2023-02-19T08:04:11;11.53;;;4.70;;
7375;SDS011;3728;42.266;24.944;2023-02-19T08:06:40;11.73;;;4.13;;
7375;SDS011;3728;42.266;24.944;2023-02-19T08:09:08;16.60;;;5.70;;
7375;SDS011;3728;42.266;24.944;2023-02-19T08:11:36;15.77;;;4.30;;
7375;SDS011;3728;42.266;24.944;2023-02-19T08:14:26;14.20;;;4.07;;
7375;SDS011;3728;42.266;24.944;2023-02-19T08:16:54;13.97;;;4.50;;
7375;SDS011;3728;42.266;24.944;2023-02-19T08:19:22;6.93;;;4.03;;
7375;SDS011;3728;42.266;24.944;2023-02-19T08:21:50;15.80;;;4.30;;
7375;SDS011;3728;42.266;24.944;2023-02-19T08:24:18;13.03;;;4.33;;
7375;SDS011;3728;42.266;24.944;2023-02-19T08:26:46;6.53;;;3.70;;
7375;SDS011;3728;42.266;24.944;2023-02-19T08:29:14;10.57;;;4.47;;
7375;SDS011;3728;42.266;24.944;2023-02-19T08:31:44;6.80;;;4.20;;
7375;SDS011;3728;42.266;24.944;2023-02-19T08:34:12;9.70;;;4.17;;
7375;SDS011;3728;42.266;24.944;2023-02-19T08:36:39;5.03;;;4.03;;
7375;SDS011;3728;42.266;24.944;2023-02-19T08:39:07;5.77;;;3.70;;
7375;SDS011;3728;42.266;24.944;2023-02-19T08:41:36;8.80;;;4.00;;
7375;SDS011;3728;42.266;24.944;2023-02-19T08:44:04;11.43;;;4.70;;
7375;SDS011;3728;42.266;24.944;2023-02-19T08:46:31;7.83;;;5.17;;
7375;SDS011;3728;42.266;24.944;2023-02-19T08:48:59;9.53;;;4.50;;
7375;SDS011;3728;42.266;24.944;2023-02-19T08:51:28;13.80;;;6.70;;
7375;SDS011;3728;42.266;24.944;2023-02-19T08:53:56;11.33;;;5.70;;
7375;SDS011;3728;42.266;24.944;2023-02-19T08:56:24;15.13;;;7.63;;
7375;SDS011;3728;42.266;24.944;2023-02-19T08:58:52;16.17;;;8.73;;
7375;SDS011;3728;42.266;24.944;2023-02-19T09:01:21;14.47;;;8.37;;
7375;SDS011;3728;42.266;24.944;2023-02-19T09:03:51;7.80;;;3.67;;
7375;SDS011;3728;42.266;24.944;2023-02-19T09:06:22;10.73;;;4.47;;
7375;SDS011;3728;42.266;24.944;2023-02-19T09:08:50;9.37;;;5.17;;
7375;SDS011;3728;42.266;24.944;2023-02-19T09:11:18;6.70;;;4.10;;
7375;SDS011;3728;42.266;24.944;2023-02-19T09:13:47;17.73;;;7.20;;
7375;SDS011;3728;42.266;24.944;2023-02-19T09:16:15;11.93;;;5.30;;
7375;SDS011;3728;42.266;24.944;2023-02-19T09:18:44;17.83;;;9.13;;
7375;SDS011;3728;42.266;24.944;2023-02-19T09:21:11;5.70;;;4.07;;
7375;SDS011;3728;42.266;24.944;2023-02-19T09:23:40;13.33;;;5.70;;
7375;SDS011;3728;42.266;24.944;2023-02-19T09:26:08;15.93;;;4.97;;
7375;SDS011;3728;42.266;24.944;2023-02-19T09:28:37;7.87;;;3.87;;
7375;SDS011;3728;42.266;24.944;2023-02-19T09:31:08;9.93;;;3.80;;
7375;SDS011;3728;42.266;24.944;2023-02-19T09:33:43;8.30;;;4.10;;
7375;SDS011;3728;42.266;24.944;2023-02-19T09:36:12;3.90;;;3.37;;
7375;SDS011;3728;42.266;24.944;2023-02-19T09:38:41;6.20;;;4.40;;
7375;SDS011;3728;42.266;24.944;2023-02-19T09:41:23;7.80;;;5.47;;
7375;SDS011;3728;42.266;24.944;2023-02-19T09:43:59;6.77;;;4.27;;
7375;SDS011;3728;42.266;24.944;2023-02-19T09:49:16;4.03;;;3.50;;
7375;SDS011;3728;42.266;24.944;2023-02-19T09:51:53;10.07;;;6.50;;
7375;SDS011;3728;42.266;24.944;2023-02-19T09:54:33;6.13;;;4.40;;
7375;SDS011;3728;42.266;24.944;2023-02-19T09:57:04;9.83;;;4.37;;
7375;SDS011;3728;42.266;24.944;2023-02-19T09:59:43;11.70;;;4.53;;
7375;SDS011;3728;42.266;24.944;2023-02-19T10:04:47;4.67;;;4.10;;
7375;SDS011;3728;42.266;24.944;2023-02-19T10:07:20;4.00;;;3.57;;
7375;SDS011;3728;42.266;24.944;2023-02-19T10:09:56;3.50;;;3.20;;
7375;SDS011;3728;42.266;24.944;2023-02-19T10:12:30;6.43;;;3.50;;
7375;SDS011;3728;42.266;24.944;2023-02-19T10:18:02;6.60;;;3.90;;
7375;SDS011;3728;42.266;24.944;2023-02-19T10:20:30;4.47;;;2.90;;
7375;SDS011;3728;42.266;24.944;2023-02-19T10:23:03;5.47;;;3.60;;
7375;SDS011;3728;42.266;24.944;2023-02-19T10:25:33;4.57;;;3.40;;
7375;SDS011;3728;42.266;24.944;2023-02-19T10:28:03;4.87;;;3.77;;
7375;SDS011;3728;42.266;24.944;2023-02-19T10:30:37;4.67;;;2.80;;
7375;SDS011;3728;42.266;24.944;2023-02-19T10:33:08;4.20;;;2.90;;
7375;SDS011;3728;42.266;24.944;2023-02-19T10:38:28;6.90;;;3.53;;
7375;SDS011;3728;42.266;24.944;2023-02-19T10:43:49;7.20;;;4.40;;
7375;SDS011;3728;42.266;24.944;2023-02-19T10:48:59;5.07;;;3.20;;
7375;SDS011;3728;42.266;24.944;2023-02-19T10:51:31;5.30;;;2.97;;
7375;SDS011;3728;42.266;24.944;2023-02-19T10:54:04;2.33;;;1.97;;
7375;SDS011;3728;42.266;24.944;2023-02-19T10:56:49;3.50;;;2.67;;
7375;SDS011;3728;42.266;24.944;2023-02-19T11:01:54;4.03;;;2.90;;
7375;SDS011;3728;42.266;24.944;2023-02-19T11:04:26;3.73;;;2.20;;
7375;SDS011;3728;42.266;24.944;2023-02-19T11:07:16;3.23;;;1.97;;
7375;SDS011;3728;42.266;24.944;2023-02-19T11:09:45;2.23;;;2.00;;
7375;SDS011;3728;42.266;24.944;2023-02-19T11:12:26;6.50;;;2.60;;
7375;SDS011;3728;42.266;24.944;2023-02-19T11:14:56;3.13;;;2.40;;
7375;SDS011;3728;42.266;24.944;2023-02-19T11:17:54;3.90;;;2.30;;
7375;SDS011;3728;42.266;24.944;2023-02-19T11:20:49;3.13;;;2.13;;
7375;SDS011;3728;42.266;24.944;2023-02-19T11:26:05;8.47;;;2.63;;
7375;SDS011;3728;42.266;24.944;2023-02-19T11:28:54;3.53;;;2.40;;
7375;SDS011;3728;42.266;24.944;2023-02-19T11:31:28;6.37;;;2.80;;
7375;SDS011;3728;42.266;24.944;2023-02-19T11:34:01;4.93;;;2.40;;
7375;SDS011;3728;42.266;24.944;2023-02-19T11:37:13;3.33;;;2.23;;
7375;SDS011;3728;42.266;24.944;2023-02-19T11:39:49;3.03;;;1.97;;
7375;SDS011;3728;42.266;24.944;2023-02-19T11:42:38;3.23;;;2.70;;
7375;SDS011;3728;42.266;24.944;2023-02-19T11:46:03;3.67;;;2.60;;
7375;SDS011;3728;42.266;24.944;2023-02-19T12:00:27;2.87;;;2.67;;
7375;SDS011;3728;42.266;24.944;2023-02-19T12:19:16;3.47;;;2.40;;
7375;SDS011;3728;42.266;24.944;2023-02-19T12:22:22;8.80;;;5.70;;
7375;SDS011;3728;42.266;24.944;2023-02-19T12:28:17;5.83;;;4.63;;
7375;SDS011;3728;42.266;24.944;2023-02-19T12:35:01;2.55;;;1.90;;
7375;SDS011;3728;42.266;24.944;2023-02-19T12:38:27;3.53;;;1.65;;
7375;SDS011;3728;42.266;24.944;2023-02-19T12:44:14;2.03;;;1.50;;
7375;SDS011;3728;42.266;24.944;2023-02-19T12:46:50;1.85;;;1.67;;
7375;SDS011;3728;42.266;24.944;2023-02-19T12:52:05;2.90;;;1.48;;
7375;SDS011;3728;42.266;24.944;2023-02-19T12:54:56;2.42;;;1.90;;
7375;SDS011;3728;42.266;24.944;2023-02-19T12:57:43;1.63;;;1.42;;
7375;SDS011;3728;42.266;24.944;2023-02-19T13:00:27;1.70;;;1.52;;
7375;SDS011;3728;42.266;24.944;2023-02-19T13:03:22;1.98;;;1.67;;
7375;SDS011;3728;42.266;24.944;2023-02-19T13:06:21;2.45;;;1.75;;
7375;SDS011;3728;42.266;24.944;2023-02-19T13:09:02;2.30;;;1.98;;
7375;SDS011;3728;42.266;24.944;2023-02-19T13:15:02;1.90;;;1.52;;
7375;SDS011;3728;42.266;24.944;2023-02-19T13:17:48;3.00;;;1.80;;
7375;SDS011;3728;42.266;24.944;2023-02-19T13:20:30;1.58;;;1.45;;
7375;SDS011;3728;42.266;24.944;2023-02-19T13:38:42;3.75;;;2.63;;
7375;SDS011;3728;42.266;24.944;2023-02-19T13:41:18;5.13;;;3.80;;
7375;SDS011;3728;42.266;24.944;2023-02-19T13:44:17;2.15;;;1.60;;
7375;SDS011;3728;42.266;24.944;2023-02-19T13:47:43;1.48;;;1.38;;
7375;SDS011;3728;42.266;24.944;2023-02-19T13:52:55;1.80;;;1.40;;
7375;SDS011;3728;42.266;24.944;2023-02-19T13:55:50;6.28;;;1.50;;
7375;SDS011;3728;42.266;24.944;2023-02-19T13:58:38;1.50;;;1.38;;
7375;SDS011;3728;42.266;24.944;2023-02-19T14:09:45;24.70;;;16.63;;
7375;SDS011;3728;42.266;24.944;2023-02-19T14:12:18;10.50;;;4.50;;
7375;SDS011;3728;42.266;24.944;2023-02-19T14:14:50;2.83;;;1.98;;
7375;SDS011;3728;42.266;24.944;2023-02-19T14:17:40;2.38;;;2.17;;
7375;SDS011;3728;42.266;24.944;2023-02-19T14:28:22;2.50;;;2.30;;
7375;SDS011;3728;42.266;24.944;2023-02-19T14:30:59;4.68;;;2.58;;
7375;SDS011;3728;42.266;24.944;2023-02-19T14:33:46;3.92;;;2.13;;
7375;SDS011;3728;42.266;24.944;2023-02-19T14:36:50;2.47;;;2.03;;
7375;SDS011;3728;42.266;24.944;2023-02-19T14:39:29;17.75;;;3.42;;
7375;SDS011;3728;42.266;24.944;2023-02-19T14:42:04;6.28;;;2.20;;
7375;SDS011;3728;42.266;24.944;2023-02-19T14:44:55;4.13;;;2.42;;
7375;SDS011;3728;42.266;24.944;2023-02-19T14:47:27;6.25;;;3.10;;
7375;SDS011;3728;42.266;24.944;2023-02-19T14:50:12;6.78;;;2.38;;
7375;SDS011;3728;42.266;24.944;2023-02-19T14:53:02;13.50;;;2.90;;
7375;SDS011;3728;42.266;24.944;2023-02-19T14:55:35;2.88;;;1.77;;
7375;SDS011;3728;42.266;24.944;2023-02-19T14:58:06;4.35;;;2.10;;
7375;SDS011;3728;42.266;24.944;2023-02-19T15:00:59;3.97;;;1.83;;
7375;SDS011;3728;42.266;24.944;2023-02-19T15:03:36;14.98;;;3.40;;
7375;SDS011;3728;42.266;24.944;2023-02-19T15:06:06;5.95;;;2.58;;
7375;SDS011;3728;42.266;24.944;2023-02-19T15:08:44;8.45;;;3.65;;
7375;SDS011;3728;42.266;24.944;2023-02-19T15:11:19;17.40;;;5.30;;
7375;SDS011;3728;42.266;24.944;2023-02-19T15:14:00;3.47;;;2.40;;
7375;SDS011;3728;42.266;24.944;2023-02-19T15:16:33;2.40;;;2.20;;
7375;SDS011;3728;42.266;24.944;2023-02-19T15:19:04;3.33;;;2.55;;
7375;SDS011;3728;42.266;24.944;2023-02-19T15:21:36;10.50;;;3.30;;
7375;SDS011;3728;42.266;24.944;2023-02-19T15:24:14;4.03;;;2.42;;
7375;SDS011;3728;42.266;24.944;2023-02-19T15:26:46;7.72;;;2.10;;
7375;SDS011;3728;42.266;24.944;2023-02-19T15:29:17;3.47;;;2.28;;
7375;SDS011;3728;42.266;24.944;2023-02-19T15:31:50;7.20;;;2.97;;
7375;SDS011;3728;42.266;24.944;2023-02-19T15:34:24;17.00;;;3.97;;
7375;SDS011;3728;42.266;24.944;2023-02-19T15:37:04;6.35;;;2.42;;
7375;SDS011;3728;42.266;24.944;2023-02-19T15:39:35;9.93;;;4.53;;
7375;SDS011;3728;42.266;24.944;2023-02-19T15:42:06;16.92;;;7.63;;
7375;SDS011;3728;42.266;24.944;2023-02-19T15:50:34;28.67;;;7.63;;
7375;SDS011;3728;42.266;24.944;2023-02-19T15:53:07;15.43;;;5.68;;
7375;SDS011;3728;42.266;24.944;2023-02-19T15:58:40;21.27;;;7.68;;
7375;SDS011;3728;42.266;24.944;2023-02-19T16:01:23;16.15;;;4.43;;
7375;SDS011;3728;42.266;24.944;2023-02-19T16:04:00;10.70;;;4.18;;
7375;SDS011;3728;42.266;24.944;2023-02-19T16:06:29;6.22;;;3.20;;
7375;SDS011;3728;42.266;24.944;2023-02-19T16:09:34;8.85;;;3.35;;
7375;SDS011;3728;42.266;24.944;2023-02-19T16:12:20;7.05;;;3.60;;
7375;SDS011;3728;42.266;24.944;2023-02-19T16:14:50;9.60;;;3.70;;
7375;SDS011;3728;42.266;24.944;2023-02-19T16:17:20;20.33;;;5.00;;
7375;SDS011;3728;42.266;24.944;2023-02-19T16:19:56;25.80;;;4.07;;
7375;SDS011;3728;42.266;24.944;2023-02-19T16:22:33;15.38;;;3.50;;
7375;SDS011;3728;42.266;24.944;2023-02-19T16:25:17;10.25;;;3.58;;
7375;SDS011;3728;42.266;24.944;2023-02-19T16:27:55;7.47;;;3.20;;
7375;SDS011;3728;42.266;24.944;2023-02-19T16:30:31;5.55;;;3.00;;
7375;SDS011;3728;42.266;24.944;2023-02-19T16:46:53;33.87;;;26.13;;
7375;SDS011;3728;42.266;24.944;2023-02-19T16:49:32;26.07;;;21.40;;
7375;SDS011;3728;42.266;24.944;2023-02-19T16:52:01;19.57;;;16.57;;
7375;SDS011;3728;42.266;24.944;2023-02-19T16:54:30;18.57;;;13.00;;
7375;SDS011;3728;42.266;24.944;2023-02-19T16:56:58;23.80;;;15.63;;
7375;SDS011;3728;42.266;24.944;2023-02-19T16:59:26;41.27;;;29.67;;
7375;SDS011;3728;42.266;24.944;2023-02-19T17:01:55;141.53;;;97.90;;
7375;SDS011;3728;42.266;24.944;2023-02-19T17:04:23;321.13;;;236.70;;
7375;SDS011;3728;42.266;24.944;2023-02-19T17:06:52;94.27;;;64.00;;
7375;SDS011;3728;42.266;24.944;2023-02-19T17:09:21;40.23;;;28.40;;
7375;SDS011;3728;42.266;24.944;2023-02-19T17:11:48;29.60;;;20.03;;
7375;SDS011;3728;42.266;24.944;2023-02-19T17:14:16;18.20;;;12.73;;
7375;SDS011;3728;42.266;24.944;2023-02-19T17:16:45;27.07;;;17.37;;
7375;SDS011;3728;42.266;24.944;2023-02-19T17:19:14;21.13;;;15.13;;
7375;SDS011;3728;42.266;24.944;2023-02-19T17:21:47;22.00;;;14.00;;
7375;SDS011;3728;42.266;24.944;2023-02-19T17:24:16;24.13;;;14.47;;
7375;SDS011;3728;42.266;24.944;2023-02-19T17:26:45;30.57;;;18.07;;
7375;SDS011;3728;42.266;24.944;2023-02-19T17:29:14;44.17;;;25.63;;
7375;SDS011;3728;42.266;24.944;2023-02-19T17:31:48;64.20;;;36.17;;
7375;SDS011;3728;42.266;24.944;2023-02-19T17:34:19;100.87;;;54.53;;
7375;SDS011;3728;42.266;24.944;2023-02-19T17:36:47;98.33;;;60.23;;
7375;SDS011;3728;42.266;24.944;2023-02-19T17:39:19;121.37;;;75.67;;
7375;SDS011;3728;42.266;24.944;2023-02-19T17:41:48;87.50;;;55.43;;
7375;SDS011;3728;42.266;24.944;2023-02-19T17:44:16;60.00;;;41.10;;
7375;SDS011;3728;42.266;24.944;2023-02-19T17:46:44;47.83;;;31.37;;
7375;SDS011;3728;42.266;24.944;2023-02-19T17:49:14;44.20;;;27.43;;
7375;SDS011;3728;42.266;24.944;2023-02-19T17:51:43;36.27;;;23.70;;
7375;SDS011;3728;42.266;24.944;2023-02-19T17:54:11;29.70;;;20.33;;
7375;SDS011;3728;42.266;24.944;2023-02-19T17:56:39;29.03;;;17.70;;
7375;SDS011;3728;42.266;24.944;2023-02-19T17:59:14;29.13;;;17.97;;
7375;SDS011;3728;42.266;24.944;2023-02-19T18:01:45;25.17;;;16.33;;
7375;SDS011;3728;42.266;24.944;2023-02-19T18:04:12;22.13;;;15.30;;
7375;SDS011;3728;42.266;24.944;2023-02-19T18:06:40;65.23;;;40.57;;